createdAt,value
2022-11-22T00:01:05.707Z,5.70
2022-11-22T00:03:25.438Z,5.30
2022-11-22T00:05:45.030Z,4.53
2022-11-22T00:08:05.492Z,4.30
2022-11-22T00:10:25.404Z,4.88
2022-11-22T00:12:45.070Z,5.15
2022-11-22T00:15:05.571Z,3.70
2022-11-22T00:17:25.552Z,4.35
2022-11-22T00:19:45.207Z,5.15
2022-11-22T00:22:08.486Z,4.53
2022-11-22T00:24:28.702Z,3.78
2022-11-22T00:26:48.806Z,3.60
2022-11-22T00:29:08.881Z,6.60
2022-11-22T00:31:28.709Z,5.63
2022-11-22T00:33:48.818Z,4.20
2022-11-22T00:36:09.143Z,3.42
2022-11-22T00:38:29.121Z,3.63
2022-11-22T00:40:48.930Z,4.80
2022-11-22T00:43:08.601Z,4.03
2022-11-22T00:45:28.572Z,3.38
2022-11-22T00:47:48.736Z,3.70
2022-11-22T00:50:09.998Z,3.97
2022-11-22T00:52:30.131Z,4.05
2022-11-22T00:54:54.509Z,4.55
2022-11-22T00:57:14.914Z,4.65
2022-11-22T00:59:34.637Z,3.42
2022-11-22T01:01:54.629Z,2.95
2022-11-22T01:04:15.150Z,2.60
2022-11-22T01:06:35.449Z,3.03
2022-11-22T01:08:55.626Z,2.47
2022-11-22T01:11:17.713Z,2.45
2022-11-22T01:13:38.047Z,2.30
2022-11-22T01:16:04.449Z,3.20
2022-11-22T01:18:24.029Z,2.97
2022-11-22T01:20:43.856Z,2.97
2022-11-22T01:23:04.039Z,2.38
2022-11-22T01:25:24.077Z,2.85
2022-11-22T01:27:44.197Z,2.33
2022-11-22T01:30:05.092Z,2.30
2022-11-22T01:32:24.913Z,2.85
2022-11-22T01:34:45.464Z,2.80
2022-11-22T01:37:05.894Z,2.50
2022-11-22T01:39:25.873Z,3.47
2022-11-22T01:41:45.679Z,3.22
2022-11-22T01:44:22.393Z,3.35
2022-11-22T01:46:42.285Z,3.17
2022-11-22T01:49:08.934Z,2.47
2022-11-22T01:51:35.564Z,2.60
2022-11-22T01:54:00.051Z,3.00
2022-11-22T01:56:21.471Z,2.65
2022-11-22T01:58:44.194Z,3.38
2022-11-22T02:01:04.411Z,3.08
2022-11-22T02:03:27.087Z,3.83
2022-11-22T02:05:48.444Z,2.42
2022-11-22T02:08:23.146Z,2.08
2022-11-22T02:10:46.491Z,2.03
2022-11-22T02:13:07.437Z,2.03
2022-11-22T02:15:27.090Z,1.70
2022-11-22T02:17:46.645Z,1.83
2022-11-22T02:20:07.261Z,1.85
2022-11-22T02:22:44.336Z,1.50
2022-11-22T02:25:12.509Z,1.30
2022-11-22T02:27:32.482Z,1.73
2022-11-22T02:29:52.659Z,1.80
2022-11-22T02:32:12.239Z,2.05
2022-11-22T02:34:44.979Z,2.15
2022-11-22T02:37:04.649Z,2.28
2022-11-22T02:39:29.355Z,1.88
2022-11-22T02:41:49.853Z,1.85
2022-11-22T02:44:11.703Z,1.70
2022-11-22T02:46:31.389Z,2.13
2022-11-22T02:48:51.086Z,1.80
2022-11-22T02:51:16.050Z,1.30
2022-11-22T02:53:36.134Z,2.20
2022-11-22T02:55:56.358Z,1.92
2022-11-22T02:58:15.905Z,2.15
2022-11-22T03:00:37.646Z,1.90
2022-11-22T03:02:57.351Z,2.30
2022-11-22T03:05:17.795Z,2.55
2022-11-22T03:07:38.324Z,2.03
2022-11-22T03:09:58.138Z,2.28
2022-11-22T03:12:17.680Z,1.83
2022-11-22T03:14:38.064Z,1.50
2022-11-22T03:16:58.086Z,1.63
2022-11-22T03:19:17.747Z,1.52
2022-11-22T03:21:39.084Z,1.70
2022-11-22T03:23:59.033Z,1.67
2022-11-22T03:26:19.176Z,2.38
2022-11-22T03:28:39.196Z,10.73
2022-11-22T03:30:59.239Z,1.98
2022-11-22T03:33:18.705Z,1.77
2022-11-22T03:35:38.385Z,1.55
2022-11-22T03:37:58.351Z,1.45
2022-11-22T03:40:18.183Z,2.40
2022-11-22T03:42:38.535Z,2.70
2022-11-22T03:44:58.492Z,2.40
2022-11-22T03:47:18.171Z,2.90
2022-11-22T03:49:38.267Z,2.35
2022-11-22T03:51:58.051Z,2.65
2022-11-22T03:54:17.869Z,2.70
2022-11-22T03:56:38.047Z,2.70
2022-11-22T03:58:58.290Z,2.30
2022-11-22T04:01:18.416Z,2.67
2022-11-22T04:03:38.044Z,2.33
2022-11-22T04:05:57.718Z,2.10
2022-11-22T04:08:17.713Z,2.00
2022-11-22T04:10:37.610Z,1.80
2022-11-22T04:12:58.695Z,1.98
2022-11-22T04:15:18.428Z,2.15
2022-11-22T04:17:40.676Z,2.30
2022-11-22T04:20:19.322Z,6.07
2022-11-22T04:22:39.534Z,10.82
2022-11-22T04:25:14.433Z,13.80
2022-11-22T04:27:34.449Z,2.38
2022-11-22T04:29:54.272Z,2.97
2022-11-22T04:32:52.616Z,1.50
2022-11-22T04:35:14.742Z,2.30
2022-11-22T04:37:34.666Z,4.53
2022-11-22T04:39:54.442Z,9.82
2022-11-22T04:42:33.352Z,4.88
2022-11-22T04:44:53.088Z,12.63
2022-11-22T04:47:38.409Z,18.42
2022-11-22T04:49:58.477Z,22.50
2022-11-22T04:52:56.821Z,13.55
2022-11-22T04:55:16.486Z,6.53
2022-11-22T04:57:36.493Z,6.80
2022-11-22T04:59:56.431Z,7.32
2022-11-22T05:02:16.188Z,13.90
2022-11-22T05:04:36.049Z,14.13
2022-11-22T05:06:56.376Z,2.15
2022-11-22T05:09:16.344Z,6.85
2022-11-22T05:11:36.395Z,2.22
2022-11-22T05:13:56.675Z,2.05
2022-11-22T05:16:17.041Z,2.28
2022-11-22T05:18:37.477Z,2.20
2022-11-22T05:21:00.306Z,2.50
2022-11-22T05:23:39.382Z,12.30
2022-11-22T05:25:59.876Z,2.42
2022-11-22T05:28:20.006Z,9.52
2022-11-22T05:30:41.044Z,11.65
2022-11-22T05:33:00.653Z,2.50
2022-11-22T05:35:20.296Z,2.33
2022-11-22T05:37:40.316Z,2.10
2022-11-22T05:40:00.446Z,2.97
2022-11-22T05:42:20.886Z,4.85
2022-11-22T05:44:41.302Z,5.22
2022-11-22T05:47:01.381Z,8.35
2022-11-22T05:49:21.301Z,6.30
2022-11-22T05:51:41.432Z,4.72
2022-11-22T05:54:02.221Z,5.00
2022-11-22T05:56:23.559Z,3.28
2022-11-22T05:58:43.910Z,2.85
2022-11-22T06:01:06.225Z,3.38
2022-11-22T06:03:26.096Z,2.85
2022-11-22T06:05:52.085Z,5.57
2022-11-22T06:08:12.520Z,7.20
2022-11-22T06:10:36.671Z,10.52
2022-11-22T06:12:56.349Z,2.88
2022-11-22T06:15:16.667Z,2.13
2022-11-22T06:17:36.453Z,3.15
2022-11-22T06:19:58.964Z,2.13
2022-11-22T06:22:22.615Z,2.85
2022-11-22T06:24:42.335Z,2.28
2022-11-22T06:27:02.340Z,1.75
2022-11-22T06:29:22.358Z,2.75
2022-11-22T06:31:41.875Z,2.90
2022-11-22T06:34:01.489Z,3.55
2022-11-22T06:36:26.798Z,4.53
2022-11-22T06:38:47.450Z,3.28
2022-11-22T06:41:09.715Z,2.60
2022-11-22T06:43:30.522Z,2.67
2022-11-22T06:45:54.271Z,2.95
2022-11-22T06:48:14.119Z,2.55
2022-11-22T06:50:34.181Z,2.92
2022-11-22T06:52:54.008Z,2.35
2022-11-22T06:55:42.360Z,2.88
2022-11-22T06:57:54.758Z,2.30
2022-11-22T07:00:15.184Z,2.30
2022-11-22T07:02:34.768Z,2.10
2022-11-22T07:05:23.440Z,2.28
2022-11-22T07:07:35.329Z,2.42
2022-11-22T07:09:56.713Z,2.65
2022-11-22T07:12:16.454Z,2.90
2022-11-22T07:14:36.778Z,2.40
2022-11-22T07:16:56.748Z,2.95
2022-11-22T07:19:16.414Z,2.85
2022-11-22T07:21:37.791Z,2.83
2022-11-22T07:23:57.957Z,1.95
2022-11-22T07:26:19.522Z,2.40
2022-11-22T07:28:40.258Z,2.15
2022-11-22T07:31:02.236Z,1.80
2022-11-22T07:33:22.018Z,2.00
2022-11-22T07:35:42.232Z,1.92
2022-11-22T07:38:03.045Z,2.28
2022-11-22T07:40:23.037Z,2.10
2022-11-22T07:42:42.578Z,1.98
2022-11-22T07:45:02.411Z,2.17
2022-11-22T07:47:23.246Z,2.45
2022-11-22T07:49:43.310Z,3.42
2022-11-22T07:52:03.537Z,2.65
2022-11-22T07:54:23.717Z,3.40
2022-11-22T07:56:43.371Z,2.28
2022-11-22T07:59:03.168Z,2.70
2022-11-22T08:01:23.477Z,3.83
2022-11-22T08:03:44.361Z,6.00
2022-11-22T08:06:07.476Z,3.22
2022-11-22T08:08:28.398Z,3.20
2022-11-22T08:10:48.344Z,3.85
2022-11-22T08:13:07.997Z,5.03
2022-11-22T08:15:29.134Z,2.47
2022-11-22T08:17:48.714Z,2.58
2022-11-22T08:20:09.383Z,4.32
2022-11-22T08:22:28.948Z,5.50
2022-11-22T08:24:48.844Z,10.73
2022-11-22T08:27:08.967Z,6.20
2022-11-22T08:29:29.298Z,2.70
2022-11-22T08:31:49.273Z,2.78
2022-11-22T08:34:08.929Z,3.17
2022-11-22T08:36:29.014Z,2.83
2022-11-22T08:38:48.649Z,3.33
2022-11-22T08:41:09.334Z,2.05
2022-11-22T08:43:29.372Z,4.60
2022-11-22T08:45:54.410Z,3.22
2022-11-22T08:48:19.111Z,2.15
2022-11-22T08:50:48.515Z,7.82
2022-11-22T08:53:08.536Z,3.95
2022-11-22T08:55:28.140Z,1.70
2022-11-22T08:57:47.670Z,2.15
2022-11-22T09:00:08.217Z,2.40
2022-11-22T09:02:28.096Z,1.98
2022-11-22T09:04:47.785Z,2.13
2022-11-22T09:09:47.194Z,2.05
2022-11-22T09:12:07.292Z,1.80
2022-11-22T09:14:26.978Z,1.70
2022-11-22T09:16:46.677Z,1.55
2022-11-22T09:19:06.190Z,1.30
2022-11-22T09:21:26.071Z,1.67
2022-11-22T09:23:48.222Z,1.48
2022-11-22T09:26:10.465Z,1.50
2022-11-22T09:28:30.568Z,1.50
2022-11-22T09:30:50.265Z,1.50
2022-11-22T09:33:09.778Z,1.30
2022-11-22T09:35:29.494Z,1.30
2022-11-22T09:37:49.474Z,1.05
2022-11-22T09:40:09.814Z,1.55
2022-11-22T09:42:38.500Z,1.42
2022-11-22T09:45:29.465Z,1.40
2022-11-22T09:48:09.904Z,22.45
2022-11-22T09:50:50.990Z,2.50
2022-11-22T09:53:24.183Z,2.45
2022-11-22T09:58:19.434Z,1.10
2022-11-22T10:00:43.609Z,1.42
2022-11-22T10:03:29.998Z,1.17
2022-11-22T10:05:53.112Z,1.20
2022-11-22T10:08:19.299Z,1.50
2022-11-22T10:10:42.157Z,1.27
2022-11-22T10:13:18.873Z,1.65
2022-11-22T10:15:46.958Z,2.03
2022-11-22T10:18:36.145Z,1.65
2022-11-22T10:20:56.153Z,4.90
2022-11-22T10:23:23.853Z,1.63
2022-11-22T10:25:50.839Z,1.40
2022-11-22T10:28:34.716Z,1.20
2022-11-22T10:31:25.310Z,1.90
2022-11-22T10:34:04.000Z,1.83
2022-11-22T10:36:53.219Z,1.80
2022-11-22T10:39:19.357Z,1.90
2022-11-22T10:42:12.726Z,2.17
2022-11-22T10:44:59.981Z,3.22
2022-11-22T10:47:19.685Z,1.90
2022-11-22T10:50:04.408Z,2.72
2022-11-22T10:52:36.456Z,1.83
2022-11-22T10:55:05.938Z,2.85
2022-11-22T10:57:46.282Z,2.47
2022-11-22T11:00:24.360Z,2.00
2022-11-22T11:03:09.697Z,2.90
2022-11-22T11:06:21.035Z,2.65
2022-11-22T11:09:48.381Z,3.10
2022-11-22T11:11:44.718Z,3.88
2022-11-22T11:14:11.764Z,7.27
2022-11-22T11:16:35.784Z,4.18
2022-11-22T11:19:07.670Z,2.15
2022-11-22T11:21:27.645Z,2.42
2022-11-22T11:23:47.818Z,3.83
2022-11-22T11:26:30.266Z,3.78
2022-11-22T11:28:50.217Z,5.13
2022-11-22T11:31:12.683Z,2.83
2022-11-22T11:33:37.379Z,3.50
2022-11-22T11:36:09.698Z,3.80
2022-11-22T11:38:56.685Z,3.97
2022-11-22T11:41:40.283Z,3.22
2022-11-22T11:44:05.051Z,2.40
2022-11-22T11:46:27.232Z,2.20
2022-11-22T11:48:49.301Z,2.63
2022-11-22T11:51:18.415Z,2.50
2022-11-22T11:53:41.360Z,2.15
2022-11-22T11:56:29.785Z,3.25
2022-11-22T11:58:52.600Z,4.28
2022-11-22T12:01:19.061Z,3.55
2022-11-22T12:03:38.901Z,4.13
2022-11-22T12:06:13.166Z,3.30
2022-11-22T12:08:33.242Z,3.08
2022-11-22T12:10:59.569Z,4.47
2022-11-22T12:14:04.693Z,4.13
2022-11-22T12:16:27.162Z,4.57
2022-11-22T12:18:50.287Z,4.50
2022-11-22T12:21:21.663Z,4.55
2022-11-22T12:24:26.486Z,2.83
2022-11-22T12:26:40.363Z,3.90
2022-11-22T12:29:00.465Z,4.15
2022-11-22T12:31:25.712Z,5.22
2022-11-22T12:33:51.876Z,4.00
2022-11-22T12:36:22.229Z,2.95
2022-11-22T12:38:45.313Z,3.03
2022-11-22T12:41:10.065Z,3.35
2022-11-22T12:43:34.413Z,3.20
2022-11-22T12:46:16.060Z,5.25
2022-11-22T12:48:53.612Z,3.85
2022-11-22T12:51:36.449Z,4.63
2022-11-22T12:54:01.351Z,4.25
2022-11-22T12:56:35.946Z,5.63
2022-11-22T12:59:11.025Z,6.20
2022-11-22T13:01:36.417Z,4.63
2022-11-22T13:04:02.718Z,7.38
2022-11-22T13:06:27.164Z,5.18
2022-11-22T13:09:03.777Z,4.97
2022-11-22T13:11:49.434Z,4.95
2022-11-22T13:14:23.163Z,5.35
2022-11-22T13:16:43.777Z,4.32
2022-11-22T13:19:06.591Z,4.18
2022-11-22T13:21:38.752Z,4.97
2022-11-22T13:24:23.545Z,4.10
2022-11-22T13:27:15.461Z,3.95
2022-11-22T13:29:40.751Z,6.05
2022-11-22T13:32:05.041Z,5.82
2022-11-22T13:34:25.892Z,5.47
2022-11-22T13:36:48.362Z,5.38
2022-11-22T13:39:22.006Z,6.03
2022-11-22T13:42:03.616Z,5.07
2022-11-22T13:44:23.685Z,5.72
2022-11-22T13:46:49.644Z,4.00
2022-11-22T13:49:14.969Z,5.75
2022-11-22T13:51:55.463Z,4.75
2022-11-22T13:54:37.174Z,5.57
2022-11-22T13:57:05.890Z,5.28
2022-11-22T13:59:26.152Z,5.35
2022-11-22T14:01:46.018Z,5.78
2022-11-22T14:04:15.341Z,5.45
2022-11-22T14:06:35.210Z,4.88
2022-11-22T14:09:28.043Z,6.43
2022-11-22T14:11:55.972Z,6.22
2022-11-22T14:14:23.010Z,7.28
2022-11-22T14:17:04.431Z,7.07
2022-11-22T14:19:41.687Z,7.40
2022-11-22T14:22:19.769Z,7.78
2022-11-22T14:25:31.073Z,5.32
2022-11-22T14:28:21.756Z,6.93
2022-11-22T14:30:52.895Z,6.25
2022-11-22T14:33:18.632Z,6.07
2022-11-22T14:35:58.922Z,4.90
2022-11-22T14:38:22.074Z,4.68
2022-11-22T14:43:14.983Z,4.63
2022-11-22T14:45:52.337Z,4.40
2022-11-22T14:48:24.051Z,4.30
2022-11-22T14:50:54.200Z,6.63
2022-11-22T14:53:29.207Z,5.00
2022-11-22T14:55:51.686Z,4.60
2022-11-22T14:58:14.866Z,6.25
2022-11-22T15:00:43.912Z,5.47
2022-11-22T15:03:42.769Z,3.83
2022-11-22T15:09:09.897Z,4.75
2022-11-22T15:09:46.528Z,4.47
2022-11-22T15:12:29.714Z,4.55
2022-11-22T15:58:58.428Z,6.57
2022-11-22T16:01:19.641Z,4.35
2022-11-22T16:03:42.266Z,5.13
2022-11-22T16:06:09.387Z,6.60
2022-11-22T16:08:32.926Z,9.30
2022-11-22T16:10:52.812Z,7.03
2022-11-22T16:13:18.885Z,5.47
2022-11-22T16:15:38.728Z,5.85
2022-11-22T16:18:10.470Z,3.42
2022-11-22T16:20:33.006Z,4.97
2022-11-22T16:23:16.649Z,5.97
2022-11-22T16:25:39.175Z,4.55
2022-11-22T16:28:02.735Z,4.15
2022-11-22T16:30:23.867Z,4.82
2022-11-22T16:32:43.855Z,10.07
2022-11-22T16:35:29.037Z,5.43
2022-11-22T16:37:49.673Z,5.50
2022-11-22T16:40:16.095Z,7.95
2022-11-22T16:42:38.590Z,6.88
2022-11-22T16:45:03.720Z,6.10
2022-11-22T16:47:24.138Z,5.45
2022-11-22T16:49:45.719Z,7.53
2022-11-22T16:52:11.012Z,9.18
2022-11-22T16:54:32.196Z,6.88
2022-11-22T16:56:52.031Z,7.07
2022-11-22T16:59:12.733Z,5.68
2022-11-22T17:01:34.505Z,8.18
2022-11-22T17:03:58.835Z,6.97
2022-11-22T17:06:24.331Z,6.40
2022-11-22T17:08:48.966Z,6.53
2022-11-22T17:11:10.469Z,5.13
2022-11-22T17:13:30.326Z,6.28
2022-11-22T17:15:51.381Z,5.93
2022-11-22T17:18:11.552Z,6.60
2022-11-22T17:20:31.592Z,6.65
2022-11-22T17:22:51.303Z,6.45
2022-11-22T17:25:13.218Z,7.10
2022-11-22T17:27:33.328Z,6.30
2022-11-22T17:29:53.121Z,6.45
2022-11-22T17:32:13.328Z,6.30
2022-11-22T17:34:33.797Z,5.70
2022-11-22T17:36:54.087Z,5.18
2022-11-22T17:39:14.088Z,6.93
2022-11-22T17:41:34.944Z,6.35
2022-11-22T17:43:55.050Z,5.18
2022-11-22T17:46:15.244Z,6.75
2022-11-22T17:48:35.391Z,6.18
2022-11-22T17:50:55.625Z,8.02
2022-11-22T17:53:16.943Z,8.40
2022-11-22T17:56:02.714Z,7.88
2022-11-22T17:58:17.948Z,8.25
2022-11-22T18:00:37.432Z,8.48
2022-11-22T18:02:57.204Z,9.38
2022-11-22T18:05:18.333Z,8.35
2022-11-22T18:07:39.117Z,9.13
2022-11-22T18:09:59.291Z,7.85
2022-11-22T18:12:19.035Z,9.27
2022-11-22T18:14:38.759Z,8.30
2022-11-22T18:16:59.669Z,8.95
2022-11-22T18:19:19.486Z,6.82
2022-11-22T18:21:39.205Z,8.20
2022-11-22T18:23:59.589Z,5.82
2022-11-22T18:29:35.601Z,10.45
2022-11-22T18:31:51.880Z,8.18
2022-11-22T18:34:12.598Z,6.78
2022-11-22T18:37:02.085Z,7.57
2022-11-22T18:39:12.023Z,10.73
2022-11-22T18:41:31.878Z,4.72
2022-11-22T18:43:53.143Z,5.10
2022-11-22T18:46:13.361Z,7.63
2022-11-22T18:48:34.219Z,9.55
2022-11-22T18:50:54.358Z,8.15
2022-11-22T18:53:14.793Z,8.50
2022-11-22T18:55:35.000Z,6.68
2022-11-22T18:57:55.039Z,8.02
2022-11-22T19:00:16.235Z,11.95
2022-11-22T19:02:36.431Z,13.00
2022-11-22T19:04:56.583Z,9.45
2022-11-22T19:07:17.013Z,9.80
2022-11-22T19:09:36.948Z,9.73
2022-11-22T19:11:58.765Z,6.93
2022-11-22T19:14:18.728Z,7.70
2022-11-22T19:16:38.563Z,7.18
2022-11-22T19:18:58.987Z,6.43
2022-11-22T19:21:22.168Z,6.40
2022-11-22T19:23:42.485Z,9.48
2022-11-22T19:26:04.551Z,6.75
2022-11-22T19:28:28.134Z,5.17
2022-11-22T19:33:07.573Z,6.53
2022-11-22T19:35:27.213Z,5.47
2022-11-22T19:37:46.858Z,7.78
2022-11-22T19:40:07.483Z,10.68
2022-11-22T19:42:32.641Z,8.65
2022-11-22T19:44:52.800Z,15.35
2022-11-22T19:47:12.394Z,12.00
2022-11-22T19:49:32.592Z,11.40
2022-11-22T19:51:52.446Z,13.27
2022-11-22T19:54:11.963Z,6.72
2022-11-22T19:56:34.144Z,5.45
2022-11-22T19:58:54.639Z,11.07
2022-11-22T20:01:15.849Z,10.45
2022-11-22T20:03:37.680Z,8.65
2022-11-22T20:06:01.985Z,6.63
2022-11-22T20:08:23.481Z,7.07
2022-11-22T20:10:43.630Z,8.57
2022-11-22T20:13:07.923Z,9.30
2022-11-22T20:15:30.453Z,7.50
2022-11-22T20:17:50.658Z,7.50
2022-11-22T20:20:10.714Z,7.03
2022-11-22T20:22:30.637Z,5.45
2022-11-22T20:24:52.328Z,6.03
2022-11-22T20:27:13.199Z,4.72
2022-11-22T20:29:33.244Z,8.77
2022-11-22T20:31:52.962Z,8.05
2022-11-22T20:34:14.394Z,7.57
2022-11-22T20:36:35.555Z,6.00
2022-11-22T20:38:56.049Z,9.95
2022-11-22T20:41:17.749Z,6.80
2022-11-22T20:43:38.066Z,8.52
2022-11-22T20:46:07.300Z,6.88
2022-11-22T20:48:27.108Z,7.45
2022-11-22T20:50:50.618Z,7.70
2022-11-22T20:53:10.562Z,6.50
2022-11-22T20:55:30.249Z,8.70
2022-11-22T20:57:50.003Z,6.15
2022-11-22T21:00:11.488Z,6.97
2022-11-22T21:02:33.840Z,8.43
2022-11-22T21:04:53.537Z,9.33
2022-11-22T21:07:13.222Z,8.98
2022-11-22T21:09:33.567Z,11.43
2022-11-22T21:11:53.566Z,9.85
2022-11-22T21:14:13.661Z,7.25
2022-11-22T21:16:33.616Z,8.00
2022-11-22T21:18:54.348Z,9.82
2022-11-22T21:21:14.464Z,7.40
2022-11-22T21:23:34.801Z,7.10
2022-11-22T21:25:54.660Z,5.43
2022-11-22T21:28:14.735Z,4.20
2022-11-22T21:30:34.181Z,6.57
2022-11-22T21:32:53.828Z,8.88
2022-11-22T21:35:13.549Z,6.05
2022-11-22T21:37:33.294Z,6.07
2022-11-22T21:39:53.433Z,5.80
2022-11-22T21:42:13.245Z,11.27
2022-11-22T21:44:33.541Z,5.07
2022-11-22T21:46:53.517Z,4.07
2022-11-22T21:49:12.959Z,4.80
2022-11-22T21:51:32.895Z,5.95
2022-11-22T21:53:59.512Z,3.33
2022-11-22T21:56:19.341Z,4.13
2022-11-22T21:58:38.885Z,3.70
2022-11-22T22:01:02.959Z,3.47
2022-11-22T22:03:22.865Z,2.72
2022-11-22T22:05:50.301Z,3.35
2022-11-22T22:08:10.006Z,3.50
2022-11-22T22:10:30.135Z,4.75
2022-11-22T22:12:51.352Z,4.88
2022-11-22T22:15:12.535Z,4.68
2022-11-22T22:17:32.847Z,7.05
2022-11-22T22:19:54.153Z,8.65
2022-11-22T22:22:13.694Z,4.80
2022-11-22T22:24:33.664Z,2.78
2022-11-22T22:26:53.621Z,4.95
2022-11-22T22:29:13.311Z,3.40
2022-11-22T22:31:33.339Z,4.85
2022-11-22T22:33:54.904Z,5.32
2022-11-22T22:36:15.002Z,5.50
2022-11-22T22:38:35.687Z,4.65
2022-11-22T22:40:56.824Z,5.70
2022-11-22T22:43:16.715Z,4.70
2022-11-22T22:45:36.522Z,7.70
2022-11-22T22:47:57.511Z,8.32
2022-11-22T22:50:17.546Z,13.55
2022-11-22T22:52:37.552Z,10.15
2022-11-22T22:54:57.062Z,6.68
2022-11-22T22:57:16.715Z,5.80
2022-11-22T22:59:36.939Z,11.02
2022-11-22T23:01:57.158Z,14.20
2022-11-22T23:04:16.952Z,5.90
2022-11-22T23:06:38.792Z,4.07
2022-11-22T23:08:58.489Z,4.35
2022-11-22T23:11:44.052Z,5.00
2022-11-22T23:14:03.858Z,4.15
2022-11-22T23:16:23.722Z,5.53
2022-11-22T23:18:44.837Z,5.97
2022-11-22T23:21:06.602Z,3.38
2022-11-22T23:23:26.445Z,4.20
2022-11-22T23:25:46.338Z,3.40
2022-11-22T23:28:05.911Z,3.30
2022-11-22T23:30:26.013Z,3.28
2022-11-22T23:32:45.713Z,2.95
2022-11-22T23:35:05.925Z,3.17
2022-11-22T23:37:25.336Z,3.83
2022-11-22T23:39:44.956Z,5.10
2022-11-22T23:42:04.589Z,4.20
2022-11-22T23:44:24.053Z,3.95
2022-11-22T23:46:43.747Z,3.50
2022-11-22T23:49:04.477Z,3.60
2022-11-22T23:51:25.267Z,3.65
2022-11-22T23:53:45.349Z,3.05
2022-11-22T23:56:11.270Z,3.08
2022-11-22T23:58:30.729Z,3.20
